createdAt,value
2017-01-01T00:00:27.564Z,1021.38
2017-01-01T00:01:36.261Z,1021.41
2017-01-01T00:02:46.112Z,1021.41
2017-01-01T00:03:55.963Z,1021.37
2017-01-01T00:05:05.057Z,1021.38
2017-01-01T00:06:14.131Z,1021.35
2017-01-01T00:07:23.606Z,1021.34
2017-01-01T00:08:32.332Z,1021.34
2017-01-01T00:09:41.799Z,1021.33
2017-01-01T00:10:51.273Z,1021.31
2017-01-01T00:11:59.961Z,1021.26
2017-01-01T00:13:09.446Z,1021.25
2017-01-01T00:14:19.318Z,1021.24
2017-01-01T00:15:28.417Z,1021.25
2017-01-01T00:16:37.877Z,1021.22
2017-01-01T00:17:46.592Z,1021.2
2017-01-01T00:18:56.058Z,1021.16
2017-01-01T00:20:05.134Z,1021.21
2017-01-01T00:21:14.607Z,1021.19
2017-01-01T00:22:23.707Z,1021.16
2017-01-01T00:23:32.399Z,1021.16
2017-01-01T00:24:41.479Z,1021.2
2017-01-01T00:25:51.733Z,1021.2
2017-01-01T00:27:01.172Z,1021.15
2017-01-01T00:28:11.013Z,1021.13
2017-01-01T00:29:20.086Z,1021.15
2017-01-01T00:30:28.779Z,1021.15
2017-01-01T00:31:37.856Z,1021.11
2017-01-01T00:32:46.552Z,1021.11
2017-01-01T00:33:56.015Z,1021.08
2017-01-01T00:35:05.486Z,1021.07
2017-01-01T00:36:14.577Z,1021.07
2017-01-01T00:37:23.273Z,1021.12
2017-01-01T00:38:33.118Z,1021.03
2017-01-01T00:39:42.584Z,1021.03
2017-01-01T00:40:51.679Z,1020.99
2017-01-01T00:42:00.368Z,1021.01
2017-01-01T00:43:09.835Z,1020.94
2017-01-01T00:44:18.912Z,1020.92
2017-01-01T00:45:27.598Z,1020.93
2017-01-01T00:46:36.670Z,1020.92
2017-01-01T00:47:45.354Z,1020.94
2017-01-01T00:48:54.041Z,1020.9
2017-01-01T00:50:03.111Z,1020.92
2017-01-01T00:51:12.176Z,1020.9
2017-01-01T00:52:22.442Z,1020.89
2017-01-01T00:53:31.133Z,1020.83
2017-01-01T00:54:40.984Z,1020.81
2017-01-01T00:55:49.689Z,1020.8
2017-01-01T00:56:58.758Z,1020.79
2017-01-01T00:58:07.847Z,1020.82
2017-01-01T00:59:16.915Z,1020.81
2017-01-01T01:00:25.598Z,1020.86
2017-01-01T01:01:34.668Z,1020.81
2017-01-01T01:02:43.816Z,1020.77
2017-01-01T01:03:53.296Z,1020.72
2017-01-01T01:05:02.752Z,1020.76
2017-01-01T01:06:12.228Z,1020.72
2017-01-01T01:07:20.910Z,1020.72
2017-01-01T01:08:30.362Z,1020.7
2017-01-01T01:09:39.432Z,1020.73
2017-01-01T01:10:48.126Z,1020.72
2017-01-01T01:11:57.578Z,1020.72
2017-01-01T01:13:06.268Z,1020.66
2017-01-01T01:14:15.330Z,1020.64
2017-01-01T01:15:24.394Z,1020.67
2017-01-01T01:16:33.878Z,1020.65
2017-01-01T01:17:42.567Z,1020.65
2017-01-01T01:18:52.422Z,1020.64
2017-01-01T01:20:01.492Z,1020.61
2017-01-01T01:21:10.946Z,1020.61
2017-01-01T01:22:20.018Z,1020.68
2017-01-01T01:23:29.094Z,1020.62
2017-01-01T01:24:37.763Z,1020.68
2017-01-01T01:25:46.828Z,1020.71
2017-01-01T01:26:55.891Z,1020.71
2017-01-01T01:28:05.803Z,1020.72
2017-01-01T01:29:14.880Z,1020.69
2017-01-01T01:30:24.332Z,1020.72
2017-01-01T01:31:33.012Z,1020.7
2017-01-01T01:32:42.091Z,1020.72
2017-01-01T01:33:51.156Z,1020.67
2017-01-01T01:35:00.643Z,1020.7
2017-01-01T01:36:10.879Z,1020.69
2017-01-01T01:37:19.956Z,1020.71
2017-01-01T01:38:29.029Z,1020.67
2017-01-01T01:39:37.726Z,1020.59
2017-01-01T01:40:47.178Z,1020.56
2017-01-01T01:41:56.265Z,1020.57
2017-01-01T01:43:04.961Z,1020.59
2017-01-01T01:44:13.625Z,1020.61
2017-01-01T01:45:22.304Z,1020.51
2017-01-01T01:46:32.048Z,1020.48
2017-01-01T01:47:40.732Z,1020.43
2017-01-01T01:48:50.584Z,1020.33
2017-01-01T01:49:59.650Z,1020.27
2017-01-01T01:51:08.724Z,1020.24
2017-01-01T01:52:18.195Z,1020.21
2017-01-01T01:53:27.268Z,1020.16
2017-01-01T01:54:36.358Z,1020.19
2017-01-01T01:55:45.041Z,1020.14
2017-01-01T01:56:54.130Z,1020.17
2017-01-01T01:58:03.218Z,1020.13
2017-01-01T01:59:12.336Z,1020.2
2017-01-01T02:00:21.419Z,1020.17
2017-01-01T02:01:30.106Z,1020.15
2017-01-01T02:02:38.788Z,1020.12
2017-01-01T02:03:47.473Z,1020.23
2017-01-01T02:04:56.963Z,1020.19
2017-01-01T02:06:06.050Z,1020.16
2017-01-01T02:07:15.126Z,1020.07
2017-01-01T02:08:24.575Z,1020.08
2017-01-01T02:09:34.047Z,1020.03
2017-01-01T02:10:43.936Z,1020.05
2017-01-01T02:11:53.398Z,1020.09
2017-01-01T02:13:02.106Z,1020.05
2017-01-01T02:14:10.783Z,1020.08
2017-01-01T02:15:20.227Z,1020.06
2017-01-01T02:16:29.977Z,1020.13
2017-01-01T02:17:38.663Z,1020.12
2017-01-01T02:18:48.514Z,1020.14
2017-01-01T02:19:57.966Z,1020.08
2017-01-01T02:21:07.424Z,1020.1
2017-01-01T02:22:16.889Z,1020.08
2017-01-01T02:23:26.417Z,1020.06
2017-01-01T02:24:35.486Z,1020.06
2017-01-01T02:25:44.167Z,1020.05
2017-01-01T02:26:52.851Z,1020.02
2017-01-01T02:28:03.072Z,1020
2017-01-01T02:29:11.759Z,1019.99
2017-01-01T02:30:20.829Z,1019.97
2017-01-01T02:31:29.510Z,1019.88
2017-01-01T02:32:38.216Z,1019.9
2017-01-01T02:33:48.466Z,1019.9
2017-01-01T02:34:57.538Z,1019.92
2017-01-01T02:36:07.009Z,1019.93
2017-01-01T02:37:16.071Z,1019.86
2017-01-01T02:38:25.149Z,1019.85
2017-01-01T02:39:34.216Z,1019.86
2017-01-01T02:40:43.708Z,1019.8
2017-01-01T02:41:53.188Z,1019.72
2017-01-01T02:43:02.637Z,1019.73
2017-01-01T02:44:11.328Z,1019.74
2017-01-01T02:45:20.158Z,1019.69
2017-01-01T02:46:30.405Z,1019.72
2017-01-01T02:47:39.462Z,1019.71
2017-01-01T02:48:48.920Z,1019.77
2017-01-01T02:49:58.378Z,1019.74
2017-01-01T02:51:07.065Z,1019.78
2017-01-01T02:52:15.746Z,1019.75
2017-01-01T02:53:24.819Z,1019.74
2017-01-01T02:54:34.684Z,1019.77
2017-01-01T02:55:43.763Z,1019.71
2017-01-01T02:56:52.832Z,1019.71
2017-01-01T02:58:01.904Z,1019.77
2017-01-01T02:59:11.765Z,1019.79
2017-01-01T03:00:20.833Z,1019.75
2017-01-01T03:01:29.911Z,1019.74
2017-01-01T03:02:38.596Z,1019.72
2017-01-01T03:03:48.065Z,1019.72
2017-01-01T03:04:56.743Z,1019.7
2017-01-01T03:06:05.437Z,1019.71
2017-01-01T03:07:14.896Z,1019.77
2017-01-01T03:08:24.358Z,1019.77
2017-01-01T03:09:33.045Z,1019.77
2017-01-01T03:10:42.122Z,1019.76
2017-01-01T03:11:50.813Z,1019.72
2017-01-01T03:12:59.918Z,1019.75
2017-01-01T03:14:08.754Z,1019.75
2017-01-01T03:15:18.219Z,1019.68
2017-01-01T03:16:26.894Z,1019.68
2017-01-01T03:17:35.961Z,1019.69
2017-01-01T03:18:45.048Z,1019.69
2017-01-01T03:19:53.735Z,1019.67
2017-01-01T03:21:03.202Z,1019.7
2017-01-01T03:22:11.905Z,1019.63
2017-01-01T03:23:21.366Z,1019.62
2017-01-01T03:24:31.251Z,1019.63
2017-01-01T03:25:39.959Z,1019.65
2017-01-01T03:26:49.038Z,1019.63
2017-01-01T03:27:59.280Z,1019.61
2017-01-01T03:29:08.748Z,1019.54
2017-01-01T03:30:17.815Z,1019.54
2017-01-01T03:31:26.886Z,1019.59
2017-01-01T03:32:36.355Z,1019.53
2017-01-01T03:33:45.030Z,1019.53
2017-01-01T03:34:54.112Z,1019.51
2017-01-01T03:36:03.191Z,1019.5
2017-01-01T03:37:12.257Z,1019.45
2017-01-01T03:38:21.337Z,1019.42
2017-01-01T03:39:30.403Z,1019.37
2017-01-01T03:40:40.254Z,1019.36
2017-01-01T03:41:49.331Z,1019.34
2017-01-01T03:42:58.784Z,1019.3
2017-01-01T03:44:08.243Z,1019.31
2017-01-01T03:45:16.921Z,1019.26
2017-01-01T03:46:26.782Z,1019.2
2017-01-01T03:47:35.848Z,1019.21
2017-01-01T03:48:44.526Z,1019.21
2017-01-01T03:49:53.611Z,1019.22
2017-01-01T03:51:02.682Z,1019.15
2017-01-01T03:52:12.559Z,1019.12
2017-01-01T03:53:21.639Z,1019.16
2017-01-01T03:54:30.700Z,1019.09
2017-01-01T03:55:39.768Z,1019.11
2017-01-01T03:56:49.232Z,1019.09
2017-01-01T03:57:58.302Z,1019.04
2017-01-01T03:59:06.984Z,1019.02
2017-01-01T04:00:16.442Z,1019
2017-01-01T04:01:25.899Z,1019.02
2017-01-01T04:02:34.605Z,1018.98
2017-01-01T04:03:44.123Z,1018.97
2017-01-01T04:04:53.976Z,1019
2017-01-01T04:06:02.659Z,1018.93
2017-01-01T04:07:12.114Z,1018.91
2017-01-01T04:08:21.184Z,1018.86
2017-01-01T04:09:30.642Z,1018.84
2017-01-01T04:10:39.718Z,1018.81
2017-01-01T04:11:48.798Z,1018.81
2017-01-01T04:12:57.872Z,1018.8
2017-01-01T04:14:06.541Z,1018.76
2017-01-01T04:15:15.626Z,1018.77
2017-01-01T04:16:25.070Z,1018.71
2017-01-01T04:17:34.913Z,1018.71
2017-01-01T04:18:43.989Z,1018.76
2017-01-01T04:19:53.053Z,1018.77
2017-01-01T04:21:02.925Z,1018.76
2017-01-01T04:22:12.407Z,1018.77
2017-01-01T04:23:21.085Z,1018.74
2017-01-01T04:24:30.142Z,1018.73
2017-01-01T04:25:39.983Z,1018.71
2017-01-01T04:26:48.651Z,1018.67
2017-01-01T04:27:57.714Z,1018.71
2017-01-01T04:29:06.401Z,1018.62
2017-01-01T04:30:15.462Z,1018.65
2017-01-01T04:31:24.526Z,1018.62
2017-01-01T04:32:33.976Z,1018.63
2017-01-01T04:33:43.026Z,1018.64
2017-01-01T04:34:52.484Z,1018.64
2017-01-01T04:36:01.938Z,1018.64
2017-01-01T04:37:10.614Z,1018.66
2017-01-01T04:38:19.682Z,1018.62
2017-01-01T04:39:29.531Z,1018.63
2017-01-01T04:40:38.987Z,1018.56
2017-01-01T04:41:48.050Z,1018.53
2017-01-01T04:42:56.721Z,1018.48
2017-01-01T04:44:05.815Z,1018.46
2017-01-01T04:45:14.871Z,1018.43
2017-01-01T04:46:24.321Z,1018.41
2017-01-01T04:47:32.985Z,1018.35
2017-01-01T04:48:42.450Z,1018.38
2017-01-01T04:49:51.898Z,1018.4
2017-01-01T04:51:00.566Z,1018.41
2017-01-01T04:52:09.271Z,1018.41
2017-01-01T04:53:18.341Z,1018.42
2017-01-01T04:54:27.417Z,1018.38
2017-01-01T04:55:37.260Z,1018.35
2017-01-01T04:56:45.940Z,1018.33
2017-01-01T04:57:55.008Z,1018.32
2017-01-01T04:59:04.467Z,1018.36
2017-01-01T05:00:13.528Z,1018.34
2017-01-01T05:01:22.587Z,1018.31
2017-01-01T05:02:31.275Z,1018.29
2017-01-01T05:03:40.337Z,1018.27
2017-01-01T05:04:49.388Z,1018.32
2017-01-01T05:05:58.088Z,1018.3
2017-01-01T05:07:07.549Z,1018.31
2017-01-01T05:08:17.000Z,1018.3
2017-01-01T05:09:25.733Z,1018.29
2017-01-01T05:10:34.422Z,1018.21
2017-01-01T05:11:43.487Z,1018.21
2017-01-01T05:12:53.335Z,1018.19
2017-01-01T05:14:02.399Z,1018.15
2017-01-01T05:15:11.067Z,1018.13
2017-01-01T05:16:20.541Z,1018.12
2017-01-01T05:17:29.612Z,1018.14
2017-01-01T05:18:38.673Z,1018.11
2017-01-01T05:19:48.904Z,1018.08
2017-01-01T05:20:57.973Z,1018.06
2017-01-01T05:22:07.034Z,1017.99
2017-01-01T05:23:16.095Z,1017.99
2017-01-01T05:24:25.552Z,1017.99
2017-01-01T05:25:34.235Z,1017.96
2017-01-01T05:26:43.289Z,1018
2017-01-01T05:27:51.967Z,1017.93
2017-01-01T05:29:01.813Z,1017.92
2017-01-01T05:30:10.886Z,1017.88
2017-01-01T05:31:20.717Z,1017.91
2017-01-01T05:32:29.797Z,1017.88
2017-01-01T05:33:38.862Z,1017.95
2017-01-01T05:34:47.566Z,1017.96
2017-01-01T05:35:56.246Z,1017.92
2017-01-01T05:37:05.306Z,1017.97
2017-01-01T05:38:14.760Z,1017.97
2017-01-01T05:39:23.818Z,1017.92
2017-01-01T05:40:32.882Z,1017.94
2017-01-01T05:41:41.558Z,1017.95
2017-01-01T05:42:50.628Z,1017.96
2017-01-01T05:43:59.706Z,1017.99
2017-01-01T05:45:08.383Z,1018
2017-01-01T05:46:18.232Z,1017.96
2017-01-01T05:47:27.300Z,1017.99
2017-01-01T05:48:36.767Z,1017.96
2017-01-01T05:49:45.834Z,1017.97
2017-01-01T05:50:54.904Z,1017.94
2017-01-01T05:52:04.750Z,1017.97
2017-01-01T05:53:14.590Z,1017.9
2017-01-01T05:54:24.042Z,1017.93
2017-01-01T05:55:32.711Z,1017.85
2017-01-01T05:56:42.163Z,1017.8
2017-01-01T05:57:51.618Z,1017.81
2017-01-01T05:59:00.675Z,1017.75
2017-01-01T06:00:10.129Z,1017.76
2017-01-01T06:01:19.580Z,1017.66
2017-01-01T06:02:29.025Z,1017.7
2017-01-01T06:03:38.470Z,1017.69
2017-01-01T06:04:47.530Z,1017.72
2017-01-01T06:05:56.990Z,1017.69
2017-01-01T06:07:05.672Z,1017.7
2017-01-01T06:08:14.347Z,1017.71
2017-01-01T06:09:23.422Z,1017.77
2017-01-01T06:10:32.088Z,1017.68
2017-01-01T06:11:40.781Z,1017.63
2017-01-01T06:12:49.838Z,1017.57
2017-01-01T06:13:58.915Z,1017.61
2017-01-01T06:15:07.977Z,1017.58
2017-01-01T06:16:17.836Z,1017.54
2017-01-01T06:17:26.658Z,1017.54
2017-01-01T06:18:36.411Z,1017.53
2017-01-01T06:19:45.096Z,1017.5
2017-01-01T06:20:54.940Z,1017.5
2017-01-01T06:22:04.019Z,1017.46
2017-01-01T06:23:13.086Z,1017.44
2017-01-01T06:24:22.176Z,1017.45
2017-01-01T06:25:31.657Z,1017.43
2017-01-01T06:26:40.741Z,1017.39
2017-01-01T06:27:49.844Z,1017.37
2017-01-01T06:28:58.919Z,1017.35
2017-01-01T06:30:07.608Z,1017.37
2017-01-01T06:31:16.284Z,1017.37
2017-01-01T06:32:25.743Z,1017.35
2017-01-01T06:33:35.594Z,1017.28
2017-01-01T06:34:44.667Z,1017.3
2017-01-01T06:35:54.127Z,1017.31
2017-01-01T06:37:04.006Z,1017.25
2017-01-01T06:38:13.071Z,1017.22
2017-01-01T06:39:22.126Z,1017.22
2017-01-01T06:40:30.800Z,1017.21
2017-01-01T06:41:39.468Z,1017.22
2017-01-01T06:42:48.135Z,1017.29
2017-01-01T06:43:56.807Z,1017.3
2017-01-01T06:45:06.257Z,1017.27
2017-01-01T06:46:16.099Z,1017.28
2017-01-01T06:47:25.545Z,1017.25
2017-01-01T06:48:34.607Z,1017.24
2017-01-01T06:49:43.295Z,1017.18
2017-01-01T06:50:52.765Z,1017.24
2017-01-01T06:52:01.841Z,1017.2
2017-01-01T06:53:10.528Z,1017.23
2017-01-01T06:54:19.202Z,1017.17
2017-01-01T06:55:28.648Z,1017.17
2017-01-01T06:56:37.722Z,1017.16
2017-01-01T06:57:47.569Z,1017.23
2017-01-01T06:58:56.256Z,1017.08
2017-01-01T07:00:04.925Z,1017.04
2017-01-01T07:01:13.989Z,1017
2017-01-01T07:02:23.443Z,1017.02
2017-01-01T07:03:32.892Z,1017.05
2017-01-01T07:04:42.361Z,1017.13
2017-01-01T07:05:51.426Z,1017.09
2017-01-01T07:07:00.482Z,1017.1
2017-01-01T07:08:09.157Z,1017.05
2017-01-01T07:09:18.607Z,1017.04
2017-01-01T07:10:27.288Z,1017.08
2017-01-01T07:11:35.955Z,1017.02
2017-01-01T07:12:45.022Z,1017
2017-01-01T07:13:53.711Z,1017
2017-01-01T07:15:03.166Z,1017
2017-01-01T07:16:12.234Z,1016.94
2017-01-01T07:17:21.704Z,1016.95
2017-01-01T07:18:31.157Z,1016.98
2017-01-01T07:19:39.822Z,1016.91
2017-01-01T07:20:48.497Z,1016.89
2017-01-01T07:21:57.571Z,1016.9
2017-01-01T07:23:06.627Z,1016.83
2017-01-01T07:24:15.303Z,1016.82
2017-01-01T07:25:24.757Z,1016.77
2017-01-01T07:26:33.437Z,1016.79
2017-01-01T07:27:42.495Z,1016.78
2017-01-01T07:28:51.187Z,1016.81
2017-01-01T07:30:00.709Z,1016.84
2017-01-01T07:31:09.410Z,1016.81
2017-01-01T07:32:18.471Z,1016.83
2017-01-01T07:33:27.139Z,1016.85
2017-01-01T07:34:36.590Z,1016.8
2017-01-01T07:35:45.301Z,1016.8
2017-01-01T07:36:54.390Z,1016.8
2017-01-01T07:38:03.855Z,1016.8
2017-01-01T07:39:13.072Z,1016.76
2017-01-01T07:40:21.758Z,1016.7
2017-01-01T07:41:30.825Z,1016.72
2017-01-01T07:42:39.517Z,1016.68
2017-01-01T07:43:48.963Z,1016.74
2017-01-01T07:44:58.414Z,1016.69
2017-01-01T07:46:07.484Z,1016.77
2017-01-01T07:47:16.868Z,1016.78
2017-01-01T07:48:25.540Z,1016.72
2017-01-01T07:49:35.011Z,1016.7
2017-01-01T07:50:43.688Z,1016.62
2017-01-01T07:51:52.364Z,1016.68
2017-01-01T07:53:01.439Z,1016.62
2017-01-01T07:54:10.114Z,1016.55
2017-01-01T07:55:19.178Z,1016.55
2017-01-01T07:56:27.875Z,1016.56
2017-01-01T07:57:36.946Z,1016.59
2017-01-01T07:58:46.429Z,1016.61
2017-01-01T07:59:55.490Z,1016.56
2017-01-01T08:01:04.178Z,1016.56
2017-01-01T08:02:12.849Z,1016.54
2017-01-01T08:03:22.691Z,1016.52
2017-01-01T08:04:32.146Z,1016.53
2017-01-01T08:05:42.006Z,1016.53
2017-01-01T08:06:50.720Z,1016.5
2017-01-01T08:07:59.418Z,1016.56
2017-01-01T08:09:08.515Z,1016.56
2017-01-01T08:10:17.972Z,1016.57
2017-01-01T08:11:27.435Z,1016.49
2017-01-01T08:12:36.124Z,1016.48
2017-01-01T08:13:45.195Z,1016.48
2017-01-01T08:14:54.268Z,1016.47
2017-01-01T08:16:03.717Z,1016.46
2017-01-01T08:17:12.778Z,1016.5
2017-01-01T08:18:21.851Z,1016.48
2017-01-01T08:19:31.307Z,1016.44
2017-01-01T08:20:39.973Z,1016.49
2017-01-01T08:21:48.727Z,1016.46
2017-01-01T08:22:57.412Z,1016.43
2017-01-01T08:24:06.089Z,1016.47
2017-01-01T08:25:14.761Z,1016.41
2017-01-01T08:26:23.822Z,1016.42
2017-01-01T08:27:33.282Z,1016.44
2017-01-01T08:28:42.356Z,1016.45
2017-01-01T08:29:51.060Z,1016.42
2017-01-01T08:30:59.741Z,1016.41
2017-01-01T08:32:09.587Z,1016.4
2017-01-01T08:33:19.434Z,1016.4
2017-01-01T08:34:28.904Z,1016.4
2017-01-01T08:35:38.390Z,1016.29
2017-01-01T08:36:47.065Z,1016.29
2017-01-01T08:37:56.160Z,1016.32
2017-01-01T08:39:06.386Z,1016.31
2017-01-01T08:40:15.516Z,1016.35
2017-01-01T08:41:24.592Z,1016.25
2017-01-01T08:42:34.064Z,1016.21
2017-01-01T08:43:43.518Z,1016.25
2017-01-01T08:44:52.203Z,1016.26
2017-01-01T08:46:01.266Z,1016.27
2017-01-01T08:47:10.329Z,1016.25
2017-01-01T08:48:19.779Z,1016.31
2017-01-01T08:49:28.458Z,1016.28
2017-01-01T08:50:37.518Z,1016.29
2017-01-01T08:51:46.963Z,1016.29
2017-01-01T08:52:56.046Z,1016.23
2017-01-01T08:54:05.506Z,1016.22
2017-01-01T08:55:14.172Z,1016.15
2017-01-01T08:56:22.863Z,1016.09
2017-01-01T08:57:31.535Z,1016.09
2017-01-01T08:58:41.372Z,1016.13
2017-01-01T08:59:50.433Z,1016.1
2017-01-01T09:00:59.520Z,1016.11
2017-01-01T09:02:08.220Z,1016.09
2017-01-01T09:03:16.907Z,1016.12
2017-01-01T09:04:26.370Z,1016.11
2017-01-01T09:05:36.213Z,1016.06
2017-01-01T09:06:45.281Z,1016.01
2017-01-01T09:07:54.385Z,1016.02
2017-01-01T09:09:03.088Z,1016.02
2017-01-01T09:10:12.166Z,1015.97
2017-01-01T09:11:21.239Z,1015.98
2017-01-01T09:12:29.913Z,1015.95
2017-01-01T09:13:38.975Z,1016.03
2017-01-01T09:14:48.056Z,1016
2017-01-01T09:15:57.124Z,1016.06
2017-01-01T09:17:06.188Z,1016.04
2017-01-01T09:18:15.255Z,1015.95
2017-01-01T09:19:24.336Z,1015.93
2017-01-01T09:20:33.404Z,1015.95
2017-01-01T09:21:42.864Z,1015.94
2017-01-01T09:22:51.932Z,1015.97
2017-01-01T09:24:01.390Z,1015.93
2017-01-01T09:25:10.467Z,1015.91
2017-01-01T09:26:19.567Z,1015.96
2017-01-01T09:27:29.020Z,1015.95
2017-01-01T09:28:37.729Z,1015.93
2017-01-01T09:29:46.850Z,1015.93
2017-01-01T09:30:55.525Z,1015.89
2017-01-01T09:32:04.588Z,1015.84
2017-01-01T09:33:14.428Z,1015.78
2017-01-01T09:34:23.491Z,1015.78
2017-01-01T09:35:33.330Z,1015.82
2017-01-01T09:36:42.386Z,1015.79
2017-01-01T09:37:51.055Z,1015.85
2017-01-01T09:38:59.731Z,1015.81
2017-01-01T09:40:09.189Z,1015.8
2017-01-01T09:41:17.901Z,1015.79
2017-01-01T09:42:26.985Z,1015.79
2017-01-01T09:43:35.654Z,1015.78
2017-01-01T09:44:45.501Z,1015.75
2017-01-01T09:45:54.183Z,1015.72
2017-01-01T09:47:02.856Z,1015.65
2017-01-01T09:48:11.538Z,1015.63
2017-01-01T09:49:20.213Z,1015.64
2017-01-01T09:50:28.885Z,1015.62
2017-01-01T09:51:37.556Z,1015.63
2017-01-01T09:52:46.621Z,1015.62
2017-01-01T09:53:56.065Z,1015.58
2017-01-01T09:55:05.542Z,1015.52
2017-01-01T09:56:14.239Z,1015.52
2017-01-01T09:57:23.296Z,1015.49
2017-01-01T09:58:32.395Z,1015.53
2017-01-01T09:59:41.468Z,1015.5
2017-01-01T10:00:50.159Z,1015.51
2017-01-01T10:01:58.932Z,1015.5
2017-01-01T10:03:08.386Z,1015.52
2017-01-01T10:04:17.847Z,1015.47
2017-01-01T10:05:26.601Z,1015.45
2017-01-01T10:06:35.747Z,1015.46
2017-01-01T10:07:44.483Z,1015.43
2017-01-01T10:08:53.596Z,1015.37
2017-01-01T10:10:03.128Z,1015.34
2017-01-01T10:11:11.829Z,1015.36
2017-01-01T10:12:21.360Z,1015.28
2017-01-01T10:13:30.171Z,1015.25
2017-01-01T10:14:38.856Z,1015.21
2017-01-01T10:15:47.923Z,1015.26
2017-01-01T10:16:57.003Z,1015.14
2017-01-01T10:18:06.483Z,1015.19
2017-01-01T10:19:15.952Z,1015.13
2017-01-01T10:20:25.079Z,1015.08
2017-01-01T10:21:34.171Z,1015.1
2017-01-01T10:22:43.257Z,1015.08
2017-01-01T10:23:51.991Z,1015.08
2017-01-01T10:25:01.456Z,1014.99
2017-01-01T10:26:10.953Z,1015.02
2017-01-01T10:27:20.426Z,1014.98
2017-01-01T10:28:29.107Z,1015.01
2017-01-01T10:29:38.968Z,1014.96
2017-01-01T10:30:47.672Z,1014.93
2017-01-01T10:31:56.748Z,1015
2017-01-01T10:33:06.233Z,1014.93
2017-01-01T10:34:15.317Z,1014.91
2017-01-01T10:35:24.016Z,1014.98
2017-01-01T10:36:33.160Z,1014.9
2017-01-01T10:37:42.663Z,1014.89
2017-01-01T10:38:51.732Z,1015.03
2017-01-01T10:40:00.443Z,1014.82
2017-01-01T10:41:09.922Z,1014.77
2017-01-01T10:42:18.654Z,1014.75
2017-01-01T10:43:27.355Z,1014.71
2017-01-01T10:44:36.055Z,1014.71
2017-01-01T10:45:45.177Z,1014.72
2017-01-01T10:46:53.861Z,1014.72
2017-01-01T10:48:02.951Z,1014.64
2017-01-01T10:49:12.060Z,1014.62
2017-01-01T10:50:20.787Z,1014.6
2017-01-01T10:51:30.288Z,1014.53
2017-01-01T10:52:39.426Z,1014.51
2017-01-01T10:53:48.915Z,1014.44
2017-01-01T10:54:57.646Z,1014.39
2017-01-01T10:56:06.758Z,1014.39
2017-01-01T10:57:16.252Z,1014.33
2017-01-01T10:58:24.943Z,1014.38
2017-01-01T10:59:33.675Z,1014.34
2017-01-01T11:00:42.377Z,1014.3
2017-01-01T11:01:51.473Z,1014.23
2017-01-01T11:03:00.549Z,1014.27
2017-01-01T11:04:10.077Z,1014.3
2017-01-01T11:05:19.153Z,1014.33
2017-01-01T11:06:28.649Z,1014.37
2017-01-01T11:07:37.362Z,1014.4
2017-01-01T11:08:46.115Z,1014.46
2017-01-01T11:09:55.222Z,1014.38
2017-01-01T11:11:04.332Z,1014.4
2017-01-01T11:12:14.193Z,1014.42
2017-01-01T11:13:22.898Z,1014.38
2017-01-01T11:14:32.004Z,1014.42
2017-01-01T11:15:41.066Z,1014.35
2017-01-01T11:16:50.546Z,1014.36
2017-01-01T11:17:59.629Z,1014.34
2017-01-01T11:19:09.512Z,1014.25
2017-01-01T11:20:18.588Z,1014.23
2017-01-01T11:21:27.690Z,1014.22
2017-01-01T11:22:37.160Z,1014.2
2017-01-01T11:23:46.633Z,1014.19
2017-01-01T11:24:56.095Z,1014.12
2017-01-01T11:26:05.214Z,1014.16
2017-01-01T11:27:14.285Z,1014.14
2017-01-01T11:28:23.772Z,1014.12
2017-01-01T11:29:33.548Z,1014.1
2017-01-01T11:30:42.635Z,1014.1
2017-01-01T11:31:51.733Z,1014.07
2017-01-01T11:33:01.212Z,1014.03
2017-01-01T11:34:09.906Z,1014.05
2017-01-01T11:35:18.611Z,1014.01
2017-01-01T11:36:27.717Z,1014.05
2017-01-01T11:37:36.815Z,1014.02
2017-01-01T11:38:46.297Z,1013.95
2017-01-01T11:39:55.771Z,1013.94
2017-01-01T11:41:04.860Z,1013.98
2017-01-01T11:42:14.352Z,1013.95
2017-01-01T11:43:23.437Z,1013.95
2017-01-01T11:44:32.131Z,1013.92
2017-01-01T11:45:40.845Z,1013.94
2017-01-01T11:46:49.552Z,1013.91
2017-01-01T11:47:58.703Z,1013.9
2017-01-01T11:49:07.418Z,1013.93
2017-01-01T11:50:16.112Z,1013.91
2017-01-01T11:51:25.584Z,1013.94
2017-01-01T11:52:35.049Z,1013.95
2017-01-01T11:53:44.126Z,1013.88
2017-01-01T11:54:52.850Z,1013.81
2017-01-01T11:56:01.941Z,1013.82
2017-01-01T11:57:10.632Z,1013.76
2017-01-01T11:58:19.305Z,1013.76
2017-01-01T11:59:28.381Z,1013.75
2017-01-01T12:00:37.459Z,1013.7
2017-01-01T12:01:46.527Z,1013.75
2017-01-01T12:02:55.230Z,1013.74
2017-01-01T12:04:04.315Z,1013.68
2017-01-01T12:05:13.778Z,1013.67
2017-01-01T12:06:23.240Z,1013.7
2017-01-01T12:07:32.303Z,1013.7
2017-01-01T12:08:40.995Z,1013.74
2017-01-01T12:09:50.464Z,1013.67
2017-01-01T12:10:59.136Z,1013.65
2017-01-01T12:12:07.821Z,1013.67
2017-01-01T12:13:17.294Z,1013.65
2017-01-01T12:14:25.970Z,1013.66
2017-01-01T12:15:35.080Z,1013.59
2017-01-01T12:16:45.344Z,1013.59
2017-01-01T12:17:54.036Z,1013.57
2017-01-01T12:19:03.889Z,1013.52
2017-01-01T12:20:12.980Z,1013.59
2017-01-01T12:21:22.069Z,1013.52
2017-01-01T12:22:30.766Z,1013.5
2017-01-01T12:23:40.227Z,1013.46
2017-01-01T12:24:49.322Z,1013.45
2017-01-01T12:25:58.266Z,1013.46
2017-01-01T12:27:08.477Z,1013.48
2017-01-01T12:28:17.456Z,1013.46
2017-01-01T12:29:26.137Z,1013.45
2017-01-01T12:30:35.600Z,1013.47
2017-01-01T12:31:45.067Z,1013.44
2017-01-01T12:32:54.134Z,1013.41
2017-01-01T12:34:02.815Z,1013.39
2017-01-01T12:35:11.895Z,1013.42
2017-01-01T12:36:21.378Z,1013.41
2017-01-01T12:37:30.054Z,1013.39
2017-01-01T12:38:39.148Z,1013.39
2017-01-01T12:39:48.218Z,1013.44
2017-01-01T12:40:57.689Z,1013.37
2017-01-01T12:42:06.762Z,1013.37
2017-01-01T12:43:15.446Z,1013.4
2017-01-01T12:44:24.173Z,1013.4
2017-01-01T12:45:33.256Z,1013.38
2017-01-01T12:46:42.722Z,1013.4
2017-01-01T12:47:51.875Z,1013.4
2017-01-01T12:49:01.739Z,1013.44
2017-01-01T12:50:10.824Z,1013.47
2017-01-01T12:51:20.343Z,1013.49
2017-01-01T12:52:30.230Z,1013.49
2017-01-01T12:53:40.476Z,1013.47
2017-01-01T12:54:49.571Z,1013.4
2017-01-01T12:55:58.637Z,1013.4
2017-01-01T12:57:07.334Z,1013.42
2017-01-01T12:58:16.400Z,1013.39
2017-01-01T12:59:25.863Z,1013.43
2017-01-01T13:00:35.746Z,1013.44
2017-01-01T13:01:45.212Z,1013.46
2017-01-01T13:02:53.907Z,1013.48
2017-01-01T13:04:03.065Z,1013.45
2017-01-01T13:05:12.148Z,1013.47
2017-01-01T13:06:21.611Z,1013.47
2017-01-01T13:07:30.692Z,1013.44
2017-01-01T13:08:39.373Z,1013.49
2017-01-01T13:09:49.615Z,1013.45
2017-01-01T13:10:59.088Z,1013.5
2017-01-01T13:12:08.184Z,1013.49
2017-01-01T13:13:18.304Z,1013.48
2017-01-01T13:14:27.448Z,1013.48
2017-01-01T13:15:36.585Z,1013.49
2017-01-01T13:16:45.674Z,1013.47
2017-01-01T13:17:55.750Z,1013.48
2017-01-01T13:19:04.586Z,1013.5
2017-01-01T13:20:14.017Z,1013.53
2017-01-01T13:21:23.303Z,1013.56
2017-01-01T13:22:32.053Z,1013.56
2017-01-01T13:23:41.146Z,1013.52
2017-01-01T13:24:50.251Z,1013.53
2017-01-01T13:25:59.451Z,1013.53
2017-01-01T13:27:08.695Z,1013.46
2017-01-01T13:28:17.762Z,1013.5
2017-01-01T13:29:26.821Z,1013.46
2017-01-01T13:30:35.954Z,1013.44
2017-01-01T13:31:45.772Z,1013.48
2017-01-01T13:32:55.248Z,1013.48
2017-01-01T13:34:04.319Z,1013.48
2017-01-01T13:35:13.131Z,1013.46
2017-01-01T13:36:21.918Z,1013.49
2017-01-01T13:37:31.140Z,1013.46
2017-01-01T13:38:39.879Z,1013.45
2017-01-01T13:39:49.752Z,1013.49
2017-01-01T13:40:58.518Z,1013.5
2017-01-01T13:42:07.630Z,1013.48
2017-01-01T13:43:16.313Z,1013.48
2017-01-01T13:44:25.773Z,1013.48
2017-01-01T13:45:34.861Z,1013.52
2017-01-01T13:46:43.629Z,1013.5
2017-01-01T13:47:52.693Z,1013.49
2017-01-01T13:49:01.761Z,1013.53
2017-01-01T13:50:10.917Z,1013.5
2017-01-01T13:51:20.842Z,1013.49
2017-01-01T13:52:30.306Z,1013.53
2017-01-01T13:53:39.374Z,1013.53
2017-01-01T13:54:49.291Z,1013.52
2017-01-01T13:55:58.578Z,1013.51
2017-01-01T13:57:08.510Z,1013.53
2017-01-01T13:58:17.204Z,1013.51
2017-01-01T13:59:26.353Z,1013.53
2017-01-01T14:00:35.428Z,1013.59